16:37
Airports
History
Links
Donate
Help keep this website running!
PayPal
Bitcoin
This page is community maintained. The information is intended for PC simulator navigation or reference.
Always use approved charts for navigation.
DN53
KADUNA OLD
KADUNA OLD (DN53)
Kaduna, Kaduna, Nigeria
(C)
Lat/Lng:10° 35' 56.2" N / 7° 26' 55.35" E
10.598944 / 7.448707
Elevation:2126'ft / 648mMSL
ID / ICAO:DN53
Runways:1
Longest:05-23
Asphalt 2,623m / 8,606ft
Controlled:Yes
Nearby Weather08:00 GMT 2017-06-07
Nearby weather at DNKA, KADUNA located 11.0 nautical miles from DN53
Altimeter: 30.00
Visibility: 5.0 statute miles
Wind: 12 knots (from 290°)
Temp: 22°c / 72°f
Humidity: 88.4%

METAR: DNKA 070800Z 29012KT 8000 -RA FEW012 22/20 Q1016 NOSIG

(Powered by phpweather)
Airport Radio Frequencies
Tower: 118.5
Nearby VORs <50NM
Nearby NDBs
Runway 05 / 23
Dimensions:2623.2 x 31.1m 8606' x 102'ft
Surface:Asphalt
Edge Lights:High intensity
Runway 05 [A]Runway 23 [B]
Heading:045°TH 225°TH
Lat:
Lng:
10° 35' 26.41"N
7° 26' 24.4"E
10° 36' 25.99"N
7° 27' 26.29"E
User Notes and Comments
10° 35' 56.2" N / 7° 26' 55.35" E
Distance To
Airport ID:
Nearby Airports
(U) KADUNA 11.0 NM
DNKA ( WX ) NW 307°
(C) ZARIA 40.1 NM
DNZA ( WX ) NNE 23°
(U) SHIRORO 65.3 NM
DN50 SW 220°
(C) MINNA NEW 93.7 NM
DNMN SW 225°
(C) NNAMDI AZIKIWE INTL 110.7 NM
DNAA S 186°
(C) YAKUBU GOWON 117.1 NM
DNJO SE 124°
4 GUSAU 120.0 NM
DNGU NNW 334°
VFR Chart
Flight Planning at SkyVector.com